Time;durP1;ratioP1;P1;durP2;ratioP2;P2;SDS_P1;SDS_P2;PMS_P1;PMS_P2;Temp;Humidity;BMP_temperature;BMP_pressure;BME280_temperature;BME280_humidity;BME280_pressure;Samples;Min_cycle;Max_cycle;Signal;HPM_P1;HPM_P2
2022/06/20 00:02:17;;;;;;;2.33;2.03;;;;;;;-141.29;100.00;58932.97;5094077;28;20688;-73
2022/06/20 00:04:44;;;;;;;3.63;2.10;;;;;;;-141.29;100.00;58932.97;5094040;28;20210;-74
2022/06/20 00:07:13;;;;;;;2.33;2.13;;;;;;;-141.29;100.00;58932.97;5093962;28;20583;-72
2022/06/20 00:09:40;;;;;;;2.83;2.33;;;;;;;-141.29;100.00;58932.97;5094188;28;20204;-74
2022/06/20 00:12:17;;;;;;;6.50;2.40;;;;;;;-141.29;100.00;58932.97;5093829;28;20203;-75
2022/06/20 00:14:45;;;;;;;3.80;2.10;;;;;;;-141.29;100.00;58932.97;5093860;28;20195;-75
2022/06/20 00:17:13;;;;;;;2.77;2.47;;;;;;;-141.29;100.00;58932.97;5094188;28;20235;-74
2022/06/20 00:19:42;;;;;;;2.53;2.33;;;;;;;-141.29;100.00;58932.97;5094239;28;20249;-72
2022/06/20 00:22:09;;;;;;;2.57;2.37;;;;;;;-141.29;100.00;58932.97;5094540;28;20242;-74
2022/06/20 00:24:36;;;;;;;2.63;2.10;;;;;;;-141.29;100.00;58932.97;5094204;28;20716;-73
2022/06/20 00:27:06;;;;;;;2.90;2.13;;;;;;;-141.29;100.00;58932.97;5094039;28;20200;-74
2022/06/20 00:29:36;;;;;;;4.10;2.50;;;;;;;-141.29;100.00;58932.97;5094080;28;20268;-74
2022/06/20 00:32:04;;;;;;;3.93;2.07;;;;;;;-141.29;100.00;58932.97;5094810;28;20240;-73
2022/06/20 00:34:31;;;;;;;3.33;2.37;;;;;;;-141.29;100.00;58932.97;5096494;28;20629;-74
2022/06/20 00:36:59;;;;;;;3.20;2.20;;;;;;;-141.29;100.00;58932.97;5094095;28;20324;-75
2022/06/20 00:39:28;;;;;;;5.37;2.20;;;;;;;-141.29;100.00;58932.97;5093523;28;20234;-73
2022/06/20 00:41:55;;;;;;;3.17;2.20;;;;;;;-141.29;100.00;58932.97;5093532;28;20203;-73
2022/06/20 00:44:28;;;;;;;3.43;2.10;;;;;;;-141.29;100.00;58932.97;5093609;28;20216;-74
2022/06/20 00:47:04;;;;;;;2.73;2.47;;;;;;;-141.29;100.00;58932.97;5093563;28;20264;-73
2022/06/20 00:49:36;;;;;;;3.10;2.20;;;;;;;-141.29;100.00;58932.97;5093572;28;20195;-74
2022/06/20 00:52:11;;;;;;;2.57;2.27;;;;;;;-141.29;100.00;58932.97;5075212;28;20583;-75
2022/06/20 00:54:45;;;;;;;3.97;2.10;;;;;;;-141.29;100.00;58932.97;5093149;28;20689;-74
2022/06/20 00:57:17;;;;;;;3.47;2.60;;;;;;;-141.29;100.00;58932.97;5093435;28;20261;-74
2022/06/20 00:59:50;;;;;;;3.47;2.50;;;;;;;-141.29;100.00;58932.97;5093013;28;20269;-74
2022/06/20 01:02:26;;;;;;;4.30;2.33;;;;;;;-141.29;100.00;58932.97;5093268;28;20204;-74
2022/06/20 01:04:57;;;;;;;7.43;2.20;;;;;;;-141.29;100.00;58932.97;5092751;28;20219;-75
2022/06/20 01:07:30;;;;;;;5.40;2.70;;;;;;;-141.29;100.00;58932.97;5093351;28;20199;-74
2022/06/20 01:09:59;;;;;;;2.63;2.37;;;;;;;-141.29;100.00;58932.97;5093188;28;20589;-74
2022/06/20 01:12:29;;;;;;;2.57;2.33;;;;;;;-141.29;100.00;58932.97;5093129;28;20219;-74
2022/06/20 01:14:56;;;;;;;2.87;2.57;;;;;;;-141.29;100.00;58932.97;5092897;28;20281;-73
2022/06/20 01:17:31;;;;;;;3.77;2.60;;;;;;;-141.29;100.00;58932.97;5092791;28;20257;-74
2022/06/20 01:20:01;;;;;;;3.70;2.50;;;;;;;-141.29;100.00;58932.97;5092972;28;20203;-74
2022/06/20 01:22:41;;;;;;;3.90;2.83;;;;;;;-141.29;100.00;58932.97;5092748;28;20206;-74
2022/06/20 01:25:28;;;;;;;2.50;2.27;;;;;;;-141.29;100.00;58932.97;5092740;28;20204;-74
2022/06/20 01:28:00;;;;;;;3.87;2.80;;;;;;;-141.29;100.00;58932.97;5092574;28;20275;-75
2022/06/20 01:30:31;;;;;;;8.07;2.70;;;;;;;-141.29;100.00;58932.97;5093033;28;20609;-73
2022/06/20 01:33:00;;;;;;;3.77;2.67;;;;;;;-141.29;100.00;58932.97;5092047;28;20670;-73
2022/06/20 01:38:15;;;;;;;2.87;2.50;;;;;;;-141.29;100.00;58932.97;5092639;28;20690;-75
2022/06/20 01:43:28;;;;;;;6.07;3.00;;;;;;;-141.29;100.00;58932.97;5091498;28;20200;-74
2022/06/20 01:45:59;;;;;;;3.00;2.70;;;;;;;-141.29;100.00;58932.97;5092095;28;20207;-73
2022/06/20 01:48:30;;;;;;;2.30;2.10;;;;;;;-141.29;100.00;58932.97;5092049;28;20219;-74
2022/06/20 01:50:58;;;;;;;2.50;2.30;;;;;;;-141.29;100.00;58932.97;5092257;28;20203;-75
2022/06/20 01:53:32;;;;;;;5.43;2.50;;;;;;;-141.29;100.00;58932.97;5091997;28;20673;-74
2022/06/20 01:56:01;;;;;;;4.90;2.60;;;;;;;-141.29;100.00;58932.97;5092040;28;20578;-75
2022/06/20 01:58:36;;;;;;;6.53;2.70;;;;;;;-141.29;100.00;58932.97;5091919;28;20234;-74
2022/06/20 02:01:04;;;;;;;4.43;2.27;;;;;;;-141.29;100.00;58932.97;5091854;28;20214;-73
2022/06/20 02:03:35;;;;;;;5.13;2.60;;;;;;;-141.29;100.00;58932.97;5091884;28;20257;-74
2022/06/20 02:06:03;;;;;;;4.23;2.77;;;;;;;-141.29;100.00;58932.97;5091830;28;20257;-74
2022/06/20 02:08:32;;;;;;;3.33;2.10;;;;;;;-141.29;100.00;58932.97;5091884;28;20666;-74
2022/06/20 02:11:05;;;;;;;4.40;2.30;;;;;;;-141.29;100.00;58932.97;5091752;28;20210;-73
2022/06/20 02:13:38;;;;;;;3.40;2.83;;;;;;;-141.29;100.00;58932.97;5091747;28;20633;-74
2022/06/20 02:16:09;;;;;;;4.63;2.80;;;;;;;-141.29;100.00;58932.97;5092117;28;20210;-74
2022/06/20 02:18:39;;;;;;;6.90;2.87;;;;;;;-141.29;100.00;58932.97;5091604;28;20725;-76
2022/06/20 02:21:11;;;;;;;5.17;2.40;;;;;;;-141.29;100.00;58932.97;5091715;28;20666;-74
2022/06/20 02:23:43;;;;;;;2.63;2.33;;;;;;;-141.29;100.00;58932.97;5091538;28;20636;-75
2022/06/20 02:26:11;;;;;;;2.77;2.53;;;;;;;-141.29;100.00;58932.97;5093189;28;20253;-72
2022/06/20 02:28:47;;;;;;;3.00;2.23;;;;;;;-141.29;100.00;58932.97;5092215;28;20203;-75
2022/06/20 02:31:15;;;;;;;2.73;2.50;;;;;;;-141.29;100.00;58932.97;5091903;28;20206;-74
2022/06/20 02:33:43;;;;;;;4.63;2.73;;;;;;;-141.29;100.00;58932.97;5091475;28;20203;-74
2022/06/20 02:36:10;;;;;;;2.77;2.57;;;;;;;-141.29;100.00;58932.97;5091724;28;20200;-74
2022/06/20 02:38:37;;;;;;;5.27;2.70;;;;;;;-141.29;100.00;58932.97;5091088;28;20230;-73
2022/06/20 02:41:04;;;;;;;8.00;2.53;;;;;;;-141.29;100.00;58932.97;5091158;28;20219;-73
2022/06/20 02:43:37;;;;;;;3.73;2.30;;;;;;;-141.29;100.00;58932.97;5091349;28;20191;-74
2022/06/20 02:46:11;;;;;;;5.07;2.70;;;;;;;-141.29;100.00;58932.97;5094790;28;20204;-74
2022/06/20 02:48:42;;;;;;;4.23;2.93;;;;;;;-141.29;100.00;58932.97;5095558;28;20219;-74
2022/06/20 02:51:15;;;;;;;9.63;3.37;;;;;;;-141.29;100.00;58932.97;5096050;28;20701;-73
2022/06/20 02:53:46;;;;;;;5.00;3.27;;;;;;;-141.29;100.00;58932.97;5078739;28;20340;-73
2022/06/20 02:56:16;;;;;;;6.57;3.83;;;;;;;-141.29;100.00;58932.97;5096451;28;20203;-73
2022/06/20 02:58:48;;;;;;;5.77;3.33;;;;;;;-141.29;100.00;58932.97;5081766;28;20771;-72
2022/06/20 03:01:22;;;;;;;8.10;3.10;;;;;;;-141.29;100.00;58932.97;5095353;28;20662;-75
2022/06/20 03:03:52;;;;;;;7.87;3.30;;;;;;;-141.29;100.00;58932.97;5095385;28;20232;-72
2022/06/20 03:06:24;;;;;;;8.33;3.20;;;;;;;-141.29;100.00;58932.97;5095459;28;20199;-74
2022/06/20 03:08:52;;;;;;;7.13;3.70;;;;;;;-141.29;100.00;58932.97;5095363;28;20290;-73
2022/06/20 03:11:20;;;;;;;7.20;3.50;;;;;;;-141.29;100.00;58932.97;5095565;28;20200;-73
2022/06/20 03:13:50;;;;;;;12.57;3.40;;;;;;;-141.29;100.00;58932.97;5095165;28;20199;-74
2022/06/20 03:16:18;;;;;;;4.07;3.37;;;;;;;-141.29;100.00;58932.97;5095468;28;20200;-76
2022/06/20 03:18:49;;;;;;;8.63;3.60;;;;;;;-141.29;100.00;58932.97;5094974;28;20235;-73
2022/06/20 03:21:20;;;;;;;9.47;3.27;;;;;;;-141.29;100.00;58932.97;5095619;28;20204;-73
2022/06/20 03:23:48;;;;;;;8.00;3.57;;;;;;;-141.29;100.00;58932.97;5094859;28;20204;-74
2022/06/20 03:26:19;;;;;;;8.67;3.50;;;;;;;-141.29;100.00;58932.97;5095027;28;20210;-74
2022/06/20 03:28:47;;;;;;;6.40;3.60;;;;;;;-141.29;100.00;58932.97;5094802;28;20199;-74
2022/06/20 03:31:16;;;;;;;10.40;5.43;;;;;;;-141.29;100.00;58932.97;5094911;28;20757;-75
2022/06/20 03:33:45;;;;;;;20.37;9.00;;;;;;;-141.29;100.00;58932.97;5094291;28;20662;-74
2022/06/20 03:36:17;;;;;;;25.83;9.87;;;;;;;-141.29;100.00;58932.97;5095013;28;20218;-74
2022/06/20 03:38:47;;;;;;;24.47;10.20;;;;;;;-141.29;100.00;58932.97;5094395;28;20681;-72
2022/06/20 03:41:18;;;;;;;18.90;8.50;;;;;;;-141.29;100.00;58932.97;5094802;28;20286;-73
2022/06/20 03:43:51;;;;;;;22.57;7.43;;;;;;;-141.29;100.00;58932.97;5094628;28;20214;-74
2022/06/20 03:46:22;;;;;;;15.50;6.03;;;;;;;-141.29;100.00;58932.97;5094936;28;20199;-72
2022/06/20 03:48:56;;;;;;;12.83;6.17;;;;;;;-141.29;100.00;58932.97;5094257;28;20314;-73
2022/06/20 03:51:30;;;;;;;10.77;5.37;;;;;;;-141.29;100.00;58932.97;5094443;28;20250;-74
2022/06/20 03:54:05;;;;;;;7.63;3.93;;;;;;;-141.29;100.00;58932.97;5094493;28;20276;-73
2022/06/20 03:56:39;;;;;;;15.20;5.33;;;;;;;-141.29;100.00;58932.97;5093110;28;20203;-73
2022/06/20 03:59:14;;;;;;;7.87;4.67;;;;;;;-141.29;100.00;58932.97;5094384;28;20231;-73
2022/06/20 04:01:46;;;;;;;15.30;4.07;;;;;;;-141.29;100.00;58932.97;5094144;28;20587;-74
2022/06/20 04:04:22;;;;;;;11.60;4.47;;;;;;;-141.29;100.00;58932.97;5094534;28;20239;-74
2022/06/20 04:06:55;;;;;;;12.83;4.93;;;;;;;-141.29;100.00;58932.97;5094385;28;20195;-74
2022/06/20 04:12:22;;;;;;;12.10;3.90;;;;;;;-141.29;100.00;58932.97;5095442;28;20681;-74
2022/06/20 04:14:55;;;;;;;20.67;4.50;;;;;;;-141.29;100.00;58932.97;5096376;28;20662;-72
2022/06/20 04:20:22;;;;;;;5.37;3.00;;;;;;;-141.29;100.00;58932.97;5094143;28;20206;-73
2022/06/20 04:22:53;;;;;;;4.13;3.40;;;;;;;-141.29;100.00;58932.97;5093924;28;20265;-76
2022/06/20 04:25:30;;;;;;;5.70;3.30;;;;;;;-141.29;100.00;58932.97;5093870;28;20584;-74
2022/06/20 04:28:12;;;;;;;11.20;3.50;;;;;;;-141.29;100.00;58932.97;5093871;28;20686;-73
2022/06/20 04:30:44;;;;;;;4.07;3.00;;;;;;;-141.29;100.00;58932.97;5095277;28;20200;-73
2022/06/20 04:33:17;;;;;;;5.53;3.17;;;;;;;-141.29;100.00;58932.97;5094167;28;20195;-74
2022/06/20 04:35:51;;;;;;;7.07;3.40;;;;;;;-141.29;100.00;58932.97;5093740;28;20199;-73
2022/06/20 04:38:24;;;;;;;5.93;3.07;;;;;;;-141.29;100.00;58932.97;5093634;28;20580;-73
2022/06/20 04:40:56;;;;;;;22.93;3.97;;;;;;;-141.29;100.00;58932.97;5093573;28;20235;-74
2022/06/20 04:43:26;;;;;;;5.07;3.00;;;;;;;-141.29;100.00;58932.97;5093426;28;20204;-74
2022/06/20 04:46:03;;;;;;;4.47;2.70;;;;;;;-141.29;100.00;58932.97;5093566;28;20233;-72
2022/06/20 04:48:31;;;;;;;15.17;4.20;;;;;;;-141.29;100.00;58932.97;5093215;28;20657;-73
2022/06/20 04:51:02;;;;;;;11.37;3.73;;;;;;;-141.29;100.00;58932.97;5093488;28;20214;-73
2022/06/20 04:53:34;;;;;;;15.60;3.87;;;;;;;-141.29;100.00;58932.97;5093108;28;20207;-73
2022/06/20 04:56:05;;;;;;;13.60;4.33;;;;;;;-141.29;100.00;58932.97;5093293;28;20207;-75
2022/06/20 04:58:35;;;;;;;13.97;4.30;;;;;;;-141.29;100.00;58932.97;5093368;28;20227;-73
2022/06/20 05:01:07;;;;;;;8.67;4.20;;;;;;;-141.29;100.00;58932.97;5093714;28;20203;-73
2022/06/20 05:03:39;;;;;;;10.87;4.30;;;;;;;-141.29;100.00;58932.97;5093146;28;20670;-75
2022/06/20 05:06:15;;;;;;;11.40;4.10;;;;;;;-141.29;100.00;58932.97;5093189;28;20207;-74
2022/06/20 05:08:50;;;;;;;8.60;4.73;;;;;;;-141.29;100.00;58932.97;5092753;28;20705;-73
2022/06/20 05:11:24;;;;;;;9.63;4.37;;;;;;;-141.29;100.00;58932.97;5092984;28;20203;-74
2022/06/20 05:13:54;;;;;;;12.93;4.40;;;;;;;-141.29;100.00;58932.97;5092901;28;20204;-73
2022/06/20 05:16:26;;;;;;;10.13;4.30;;;;;;;-141.29;100.00;58932.97;5092812;28;20226;-75
2022/06/20 05:18:57;;;;;;;13.70;4.80;;;;;;;-141.29;100.00;58932.97;5092624;28;20227;-75
2022/06/20 05:21:31;;;;;;;16.20;5.10;;;;;;;-141.29;100.00;58932.97;5092827;28;20191;-73
2022/06/20 05:24:02;;;;;;;14.67;5.00;;;;;;;-141.29;100.00;58932.97;5092845;28;20606;-74
2022/06/20 05:26:32;;;;;;;10.70;5.13;;;;;;;-141.29;100.00;58932.97;5093139;28;20196;-74
2022/06/20 05:29:04;;;;;;;19.10;5.33;;;;;;;-141.29;100.00;58932.97;5092381;28;20203;-73
2022/06/20 05:31:35;;;;;;;10.63;4.60;;;;;;;-141.29;100.00;58932.97;5091863;28;20235;-75
2022/06/20 05:34:08;;;;;;;12.50;5.00;;;;;;;-141.29;100.00;58932.97;5092495;28;20200;-73
2022/06/20 05:36:46;;;;;;;11.93;5.27;;;;;;;-141.29;100.00;58932.97;5092243;28;20210;-73
2022/06/20 05:39:21;;;;;;;14.77;5.63;;;;;;;-141.29;100.00;58932.97;5091809;28;20303;-73
2022/06/20 05:41:49;;;;;;;14.33;5.33;;;;;;;-141.29;100.00;58932.97;5091865;28;20203;-74
2022/06/20 05:44:17;;;;;;;10.30;4.30;;;;;;;-141.29;100.00;58932.97;5092036;28;20278;-76
2022/06/20 05:46:48;;;;;;;7.73;4.40;;;;;;;-141.29;100.00;58932.97;5092097;28;20218;-74
2022/06/20 05:49:19;;;;;;;11.50;4.83;;;;;;;-141.29;100.00;58932.97;5091999;28;20227;-74
2022/06/20 05:51:49;;;;;;;8.17;5.43;;;;;;;-141.29;100.00;58932.97;5091850;28;20217;-73
2022/06/20 05:54:20;;;;;;;7.40;4.67;;;;;;;-141.29;100.00;58932.97;5091830;28;20203;-74
2022/06/20 05:56:53;;;;;;;7.93;4.60;;;;;;;-141.29;100.00;58932.97;5091641;28;20210;-75
2022/06/20 05:59:37;;;;;;;9.07;4.83;;;;;;;-141.29;100.00;58932.97;5091610;28;20251;-74
2022/06/20 06:02:18;;;;;;;15.33;6.23;;;;;;;-141.29;100.00;58932.97;5091654;28;20284;-74
2022/06/20 06:04:53;;;;;;;19.53;6.37;;;;;;;-141.29;100.00;58932.97;5091667;28;20207;-74
2022/06/20 06:07:27;;;;;;;12.23;5.80;;;;;;;-141.29;100.00;58932.97;5091952;28;20203;-74
2022/06/20 06:09:59;;;;;;;19.40;6.60;;;;;;;-141.29;100.00;58932.97;5091607;28;20198;-75
2022/06/20 06:12:32;;;;;;;14.40;6.80;;;;;;;-141.29;100.00;58932.97;5091868;28;20200;-73
2022/06/20 06:15:06;;;;;;;19.33;6.67;;;;;;;-141.29;100.00;58932.97;5091284;28;20617;-73
2022/06/20 06:17:37;;;;;;;13.07;6.90;;;;;;;-141.29;100.00;58932.97;5091701;28;20203;-73
2022/06/20 06:20:11;;;;;;;15.30;7.07;;;;;;;-141.29;100.00;58932.97;5091072;28;20226;-74
2022/06/20 06:22:43;;;;;;;16.83;6.50;;;;;;;-141.29;100.00;58932.97;5091431;28;20656;-74
2022/06/20 06:25:21;;;;;;;11.90;6.00;;;;;;;-141.29;100.00;58932.97;5091455;28;20670;-72
2022/06/20 06:27:49;;;;;;;16.03;6.13;;;;;;;-141.29;100.00;58932.97;5078836;28;20256;-75
2022/06/20 06:30:21;;;;;;;18.00;5.77;;;;;;;-141.29;100.00;58932.97;5091224;28;20693;-76
2022/06/20 06:32:53;;;;;;;15.57;5.23;;;;;;;-141.29;100.00;58932.97;5077915;28;20203;-76
2022/06/20 06:35:26;;;;;;;24.37;7.67;;;;;;;-141.29;100.00;58932.97;5095025;28;20199;-74
2022/06/20 06:38:00;;;;;;;18.87;6.97;;;;;;;-141.29;100.00;58932.97;5091354;28;20199;-73
2022/06/20 06:40:33;;;;;;;22.83;7.37;;;;;;;-141.29;100.00;58932.97;5091205;28;20230;-73
2022/06/20 06:43:01;;;;;;;14.17;6.43;;;;;;;-141.29;100.00;58932.97;5091492;28;20364;-74
2022/06/20 06:45:33;;;;;;;16.97;7.00;;;;;;;-141.29;100.00;58932.97;5091532;28;20287;-73
2022/06/20 06:48:05;;;;;;;12.17;5.50;;;;;;;-141.29;100.00;58932.97;5091224;28;20794;-73
2022/06/20 06:50:38;;;;;;;9.87;5.43;;;;;;;-141.29;100.00;58932.97;5091324;28;20294;-73
2022/06/20 06:53:14;;;;;;;12.97;4.70;;;;;;;-141.29;100.00;58932.97;5091174;28;20665;-73
2022/06/20 06:55:43;;;;;;;14.70;5.37;;;;;;;-141.29;100.00;58932.97;5090943;28;20208;-74
2022/06/20 06:58:19;;;;;;;10.90;5.07;;;;;;;-141.29;100.00;58932.97;5090805;28;20702;-75
2022/06/20 07:00:51;;;;;;;10.67;5.00;;;;;;;-141.29;100.00;58932.97;5091249;28;20218;-73
2022/06/20 07:03:24;;;;;;;12.93;5.23;;;;;;;-141.29;100.00;58932.97;5090955;28;20207;-74
2022/06/20 07:05:56;;;;;;;9.23;4.90;;;;;;;-141.29;100.00;58932.97;5091251;28;20203;-74
2022/06/20 07:08:28;;;;;;;12.30;5.90;;;;;;;-141.29;100.00;58932.97;5090934;28;20659;-73
2022/06/20 07:10:59;;;;;;;15.47;5.20;;;;;;;-141.29;100.00;58932.97;5091101;28;20215;-74
2022/06/20 07:13:37;;;;;;;11.43;5.23;;;;;;;-141.29;100.00;58932.97;5090785;28;20697;-75
2022/06/20 07:16:12;;;;;;;22.93;5.97;;;;;;;-141.29;100.00;58932.97;5090746;28;20206;-74
2022/06/20 07:18:43;;;;;;;22.33;10.00;;;;;;;-141.29;100.00;58932.97;5090900;28;20237;-75
2022/06/20 07:21:13;;;;;;;19.20;9.70;;;;;;;-141.29;100.00;58932.97;5090789;28;20227;-75
2022/06/20 07:23:45;;;;;;;20.93;8.87;;;;;;;-141.29;100.00;58932.97;5090767;28;20200;-75
2022/06/20 07:26:13;;;;;;;15.17;5.97;;;;;;;-141.29;100.00;58932.97;5091254;28;20207;-74
2022/06/20 07:28:45;;;;;;;11.83;6.13;;;;;;;-141.29;100.00;58932.97;5090954;28;20203;-75
2022/06/20 07:31:19;;;;;;;12.33;5.93;;;;;;;-141.29;100.00;58932.97;5092398;28;20332;-75
2022/06/20 07:33:50;;;;;;;11.33;4.70;;;;;;;-141.29;100.00;58932.97;5094571;28;20291;-76
2022/06/20 07:36:23;;;;;;;9.97;4.10;;;;;;;-141.29;100.00;58932.97;5094556;28;20210;-75
2022/06/20 07:38:56;;;;;;;14.03;4.00;;;;;;;-141.29;100.00;58932.97;5094320;28;20250;-74
2022/06/20 07:41:28;;;;;;;7.57;3.40;;;;;;;-141.29;100.00;58932.97;5090101;28;20210;-75
2022/06/20 07:43:59;;;;;;;6.33;2.87;;;;;;;-141.29;100.00;58932.97;5094524;28;20279;-76
2022/06/20 07:46:33;;;;;;;8.87;3.23;;;;;;;-141.29;100.00;58932.97;5094098;28;20216;-74
2022/06/20 07:49:06;;;;;;;8.87;3.77;;;;;;;-141.29;100.00;58932.97;5093903;28;20619;-75
2022/06/20 07:51:37;;;;;;;7.93;4.23;;;;;;;-141.29;100.00;58932.97;5094321;28;20616;-75
2022/06/20 07:54:11;;;;;;;5.93;3.03;;;;;;;-141.29;100.00;58932.97;5094103;28;20196;-76
2022/06/20 07:56:42;;;;;;;6.17;3.23;;;;;;;-141.29;100.00;58932.97;5093982;28;20250;-76
2022/06/20 07:59:21;;;;;;;10.23;3.20;;;;;;;-141.29;100.00;58932.97;5093615;28;20231;-75
2022/06/20 08:01:54;;;;;;;8.67;3.17;;;;;;;-141.29;100.00;58932.97;5093846;28;20205;-74
2022/06/20 08:04:27;;;;;;;11.40;3.30;;;;;;;-141.29;100.00;58932.97;5093910;28;20286;-74
2022/06/20 08:06:59;;;;;;;13.60;4.87;;;;;;;-141.29;100.00;58932.97;5093624;28;20626;-74
2022/06/20 08:09:34;;;;;;;10.67;3.60;;;;;;;-141.29;100.00;58932.97;5093682;28;20207;-73
2022/06/20 08:12:08;;;;;;;6.83;2.90;;;;;;;-141.29;100.00;58932.97;5093414;28;20202;-75
2022/06/20 08:14:41;;;;;;;6.90;3.20;;;;;;;-141.29;100.00;58932.97;5093815;28;20219;-75
2022/06/20 08:17:10;;;;;;;10.20;3.30;;;;;;;-141.29;100.00;58932.97;5093714;28;20196;-74
2022/06/20 08:19:39;;;;;;;6.03;2.47;;;;;;;-141.29;100.00;58932.97;5093945;28;20238;-73
2022/06/20 08:22:12;;;;;;;11.47;3.10;;;;;;;-141.29;100.00;58932.97;5093494;28;20302;-76
2022/06/20 08:24:46;;;;;;;7.10;3.03;;;;;;;-141.29;100.00;58932.97;5093847;28;20678;-75
2022/06/20 08:27:23;;;;;;;5.97;2.80;;;;;;;-141.29;100.00;58932.97;5094045;28;20210;-75
2022/06/20 08:29:57;;;;;;;10.23;3.27;;;;;;;-141.29;100.00;58932.97;5093771;28;20210;-74
2022/06/20 08:32:34;;;;;;;5.63;2.73;;;;;;;-141.29;100.00;58932.97;5093650;28;20283;-75
2022/06/20 08:35:09;;;;;;;7.83;2.67;;;;;;;-141.29;100.00;58932.97;5095164;28;20206;-74
2022/06/20 08:37:43;;;;;;;8.27;3.10;;;;;;;-141.29;100.00;58932.97;5093661;28;20204;-75
2022/06/20 08:40:45;;;;;;;8.43;3.10;;;;;;;-141.29;100.00;58932.97;5093466;28;20243;-75
2022/06/20 08:43:34;;;;;;;14.33;3.80;;;;;;;-141.29;100.00;58932.97;5052430;28;20229;-76
2022/06/20 08:46:25;;;;;;;8.47;2.80;;;;;;;-141.29;100.00;58932.97;5093267;28;20200;-75
2022/06/20 08:49:24;;;;;;;10.37;3.57;;;;;;;-141.29;100.00;58932.97;5092802;28;20226;-73
2022/06/20 08:52:28;;;;;;;9.80;4.00;;;;;;;-141.29;100.00;58932.97;5092785;28;20195;-73
2022/06/20 08:55:35;;;;;;;7.00;2.47;;;;;;;-141.29;100.00;58932.97;5092669;28;20196;-73
2022/06/20 08:58:11;;;;;;;4.60;2.30;;;;;;;-141.29;100.00;58932.97;5092727;28;20216;-74
2022/06/20 09:00:46;;;;;;;6.43;2.13;;;;;;;-141.29;100.00;58932.97;5092931;28;20219;-75
2022/06/20 09:03:30;;;;;;;7.73;2.00;;;;;;;-141.29;100.00;58932.97;5092726;28;20230;-74
2022/06/20 09:06:24;;;;;;;4.90;2.40;;;;;;;-141.29;100.00;58932.97;5092696;28;20207;-73
2022/06/20 09:09:14;;;;;;;8.10;2.67;;;;;;;-141.29;100.00;58932.97;5092257;28;20579;-73
2022/06/20 09:11:55;;;;;;;14.07;2.40;;;;;;;-141.29;100.00;58932.97;5092357;28;20592;-74
2022/06/20 09:14:45;;;;;;;4.50;1.93;;;;;;;-141.29;100.00;58932.97;5092493;28;20328;-73
2022/06/20 09:17:21;;;;;;;3.17;2.10;;;;;;;-141.29;100.00;58932.97;5092492;28;20204;-73
2022/06/20 09:20:02;;;;;;;8.53;2.00;;;;;;;-141.29;100.00;58932.97;5092517;28;20227;-73
2022/06/20 09:22:46;;;;;;;3.97;2.10;;;;;;;-141.29;100.00;58932.97;5092339;28;20196;-73
2022/06/20 09:25:34;;;;;;;4.27;2.50;;;;;;;-141.29;100.00;58932.97;5092935;28;20199;-75
2022/06/20 09:28:12;;;;;;;2.33;1.80;;;;;;;-141.29;100.00;58932.97;5091994;28;20253;-74
2022/06/20 09:30:47;;;;;;;2.93;1.90;;;;;;;-141.29;100.00;58932.97;5092043;28;20212;-74
2022/06/20 09:33:39;;;;;;;6.10;2.30;;;;;;;-141.29;100.00;58932.97;5092266;28;20203;-74
2022/06/20 09:36:32;;;;;;;2.67;1.70;;;;;;;-141.29;100.00;58932.97;5070867;28;20289;-75
2022/06/20 09:39:15;;;;;;;5.97;1.93;;;;;;;-141.29;100.00;58932.97;5090369;28;20619;-73
2022/06/20 09:41:57;;;;;;;5.37;2.00;;;;;;;-141.29;100.00;58932.97;5092042;28;20580;-74
2022/06/20 09:44:35;;;;;;;5.77;2.10;;;;;;;-141.29;100.00;58932.97;5092025;28;20697;-74
2022/06/20 09:47:12;;;;;;;2.70;1.73;;;;;;;-141.29;100.00;58932.97;5091729;28;20207;-75
2022/06/20 09:49:55;;;;;;;5.03;1.90;;;;;;;-141.29;100.00;58932.97;5091915;28;20211;-76
2022/06/20 09:52:33;;;;;;;6.63;2.10;;;;;;;-141.29;100.00;58932.97;5091688;28;20203;-73
2022/06/20 09:55:07;;;;;;;1.90;1.70;;;;;;;-141.29;100.00;58932.97;5090641;28;20221;-73
2022/06/20 09:57:42;;;;;;;3.40;1.90;;;;;;;-141.29;100.00;58932.97;5092027;28;20210;-74
2022/06/20 10:00:15;;;;;;;3.93;1.80;;;;;;;-141.29;100.00;58932.97;5091633;28;20224;-75
2022/06/20 10:02:51;;;;;;;4.93;2.20;;;;;;;-141.29;100.00;58932.97;5091780;28;20211;-74
2022/06/20 10:05:36;;;;;;;1.80;1.70;;;;;;;-141.29;100.00;58932.97;5091860;28;20195;-72
2022/06/20 10:08:13;;;;;;;2.53;2.00;;;;;;;-141.29;100.00;58932.97;5091864;28;20202;-74
2022/06/20 10:10:44;;;;;;;2.80;1.90;;;;;;;-141.29;100.00;58932.97;5077995;28;20288;-74
2022/06/20 10:13:17;;;;;;;2.40;2.20;;;;;;;-141.29;100.00;58932.97;5091935;28;20269;-75
2022/06/20 10:15:50;;;;;;;4.70;1.90;;;;;;;-141.29;100.00;58932.97;5091704;28;20206;-74
2022/06/20 10:18:33;;;;;;;5.50;2.00;;;;;;;-141.29;100.00;58932.97;5091529;28;20612;-74
2022/06/20 10:21:07;;;;;;;4.70;1.63;;;;;;;-141.29;100.00;58932.97;5078923;28;20223;-74
2022/06/20 10:23:54;;;;;;;4.30;2.57;;;;;;;-141.29;100.00;58932.97;5091629;28;20225;-73
2022/06/20 10:26:37;;;;;;;8.43;2.17;;;;;;;-141.29;100.00;58932.97;5091730;28;20576;-74
2022/06/20 10:29:15;;;;;;;2.60;1.90;;;;;;;-141.29;100.00;58932.97;5091227;28;20205;-75
2022/06/20 10:32:03;;;;;;;1.90;1.80;;;;;;;-141.29;100.00;58932.97;5092485;28;20199;-74
2022/06/20 10:34:41;;;;;;;2.40;1.90;;;;;;;-141.29;100.00;58932.97;5092239;28;20215;-74
2022/06/20 10:37:25;;;;;;;2.97;2.07;;;;;;;-141.29;100.00;58932.97;5091299;28;20640;-74
2022/06/20 10:39:58;;;;;;;4.50;1.87;;;;;;;-141.29;100.00;58932.97;5091220;28;20293;-74
2022/06/20 10:42:32;;;;;;;8.13;1.90;;;;;;;-141.29;100.00;58932.97;5091056;28;20668;-74
2022/06/20 10:45:18;;;;;;;4.73;2.10;;;;;;;-141.29;100.00;58932.97;5090552;28;20333;-73
2022/06/20 10:48:01;;;;;;;3.93;2.00;;;;;;;-141.29;100.00;58932.97;5090992;28;20221;-74
2022/06/20 10:50:35;;;;;;;2.73;1.80;;;;;;;-141.29;100.00;58932.97;5091635;28;20210;-74
2022/06/20 10:53:13;;;;;;;3.50;2.00;;;;;;;-141.29;100.00;58932.97;5090877;28;20678;-75
2022/06/20 10:55:46;;;;;;;3.33;2.00;;;;;;;-141.29;100.00;58932.97;5090859;28;20738;-74
2022/06/20 10:58:38;;;;;;;1.90;1.80;;;;;;;-141.29;100.00;58932.97;5090947;28;20196;-74
2022/06/20 11:01:10;;;;;;;5.43;1.80;;;;;;;-141.29;100.00;58932.97;5091140;28;20242;-74
2022/06/20 11:04:16;;;;;;;4.00;2.00;;;;;;;-141.29;100.00;58932.97;5091000;28;20207;-75
2022/06/20 11:06:57;;;;;;;5.57;2.00;;;;;;;-141.29;100.00;58932.97;5060269;28;20209;-75
2022/06/20 11:09:34;;;;;;;4.97;2.20;;;;;;;-141.29;100.00;58932.97;5094860;28;20202;-74
2022/06/20 11:12:10;;;;;;;2.90;1.90;;;;;;;-141.29;100.00;58932.97;5094972;28;20202;-75
2022/06/20 11:14:45;;;;;;;3.67;1.60;;;;;;;-141.29;100.00;58932.97;5095140;28;20205;-75
2022/06/20 11:17:21;;;;;;;2.50;1.70;;;;;;;-141.29;100.00;58932.97;5094732;28;20202;-75
2022/06/20 11:20:00;;;;;;;3.40;1.60;;;;;;;-141.29;100.00;58932.97;5095003;28;20242;-75
2022/06/20 11:22:37;;;;;;;8.70;2.23;;;;;;;-141.29;100.00;58932.97;5094977;28;20204;-74
2022/06/20 11:25:21;;;;;;;2.50;1.80;;;;;;;-141.29;100.00;58932.97;5094844;28;20213;-74
2022/06/20 11:28:13;;;;;;;1.87;1.77;;;;;;;-141.29;100.00;58932.97;5094495;28;20209;-74
2022/06/20 11:30:51;;;;;;;3.80;1.63;;;;;;;-141.29;100.00;58932.97;5094532;28;20213;-77
2022/06/20 11:36:14;;;;;;;2.20;1.87;;;;;;;-141.29;100.00;58932.97;5093624;28;20219;-74
2022/06/20 11:38:58;;;;;;;2.67;1.90;;;;;;;-141.29;100.00;58932.97;5094019;28;20295;-74
2022/06/20 11:41:35;;;;;;;2.10;1.90;;;;;;;-141.29;100.00;58932.97;5094460;28;20238;-74
2022/06/20 11:44:22;;;;;;;1.97;1.70;;;;;;;-141.29;100.00;58932.97;5094419;28;20192;-75
2022/06/20 11:47:23;;;;;;;4.50;1.83;;;;;;;-141.29;100.00;58932.97;5094503;28;20211;-75
2022/06/20 11:50:21;;;;;;;3.63;1.90;;;;;;;-141.29;100.00;58932.97;5085257;28;20238;-74
2022/06/20 11:52:58;;;;;;;3.80;2.00;;;;;;;-141.29;100.00;58932.97;5087723;28;20204;-74
2022/06/20 11:55:34;;;;;;;3.50;1.70;;;;;;;-141.29;100.00;58932.97;5094078;28;20229;-75